Lowlands Queen — 3FTU4 — position and weather

sailwx.info

Track history (hours):
 
Tides and Currents Weather Stations Pressure Air Temp Water Temp Dewpoint Dewpoint Depression Visibility Wind Speed Wind Dir Waves Ship Positions

Lowlands Queen

Last reported at 2015-Mar-30 06:31 UTC. Time now 2015-Mar-30 07:03 UTC.
Position N 27°56' W 013°41'.

Length 225 m; draft 8.6 m.

Type: Cargo ship. MMSI: 370913000.

Date/timePositionNaut miles runAvg speedWind from/ knotsBaromVisibWave heightAir tempDewpointWater temp
2015-Mar-30 06:31N 27°56' W 013°41'1414.3
2015-Mar-30 05:32N 28°07' W 013°30'2014.1
2015-Mar-30 04:09N 28°21' W 013°16'1213.8
2015-Mar-30 03:17N 28°30' W 013°07'1013.9
2015-Mar-30 02:33N 28°38' W 012°59'1414.0
2015-Mar-30 01:33N 28°48' W 012°48'1413.9
2015-Mar-30 00:33N 28°59' W 012°38'1413.8
2015-Mar-29 23:33N 29°10' W 012°28'1413.8
2015-Mar-29 22:33N 29°21' W 012°20'29313.9
2015-Mar-29 01:26N 33°28' W 009°13'1214.3
2015-Mar-29 00:34N 33°37' W 009°03'1514.7
2015-Mar-28 23:33N 33°47' W 008°51'20713.4
2015-Mar-28 08:08N 35°58' W 005°34'711.8
2015-Mar-28 07:33N 36°00' W 005°26'1010.1
2015-Mar-28 06:34N 36°03' W 005°15'19813.2
2015-Mar-27 15:30N 37°03' W 001°19'1313.6
2015-Mar-27 14:33N 37°11' W 001°07'1313.0
2015-Mar-27 13:34N 37°20' W 000°55'1413.9
2015-Mar-27 12:33N 37°29' W 000°42'1414.4
2015-Mar-27 11:34N 37°39' W 000°30'1414.5
2015-Mar-27 10:34N 37°52' W 000°20'1514.4
2015-Mar-27 09:33N 38°04' W 000°10'10214.3
2015-Mar-27 02:25N 39°24' E 001°12'1213.7
2015-Mar-27 01:33N 39°33' E 001°22'1414.1
2015-Mar-27 00:34N 39°43' E 001°34'1413.7
2015-Mar-26 23:33N 39°53' E 001°46'1413.6
2015-Mar-26 22:33N 40°03' E 001°58'1313.5
2015-Mar-26 21:33N 40°13' E 002°10'1313.3
2015-Mar-26 20:33N 40°23' E 002°22'1313.1
2015-Mar-26 19:33N 40°32' E 002°35'1413.8
2015-Mar-26 18:33N 40°39' E 002°50'1313.4
2015-Mar-26 17:33N 40°46' E 003°05'1313.3
2015-Mar-26 16:33N 40°53' E 003°21'1513.2
2015-Mar-26 15:27N 41°01' E 003°37'1213.3
2015-Mar-26 14:32N 41°07' E 003°51'1513.8
2015-Mar-26 13:28N 41°14' E 004°08'1413.5
2015-Mar-26 12:27N 41°22' E 004°23'1312.7
2015-Mar-26 11:26N 41°28' E 004°38'1212.2
2015-Mar-26 10:26N 41°35' E 004°52'1211.7
2015-Mar-26 09:24N 41°41' E 005°06'9911.2
2015-Mar-26 00:33N 42°32' E 007°01'1313.0
2015-Mar-25 23:32N 42°38' E 007°16'7913.1
2015-Mar-25 17:30N 43°40' E 008°24'1414.8
2015-Mar-25 16:34N 43°53' E 008°31'1514.6
2015-Mar-25 15:33N 44°08' E 008°34'1211.5
2015-Mar-25 14:33N 44°19' E 008°30'0 0.1
2015-Mar-25 13:32N 44°19' E 008°30'0 0.0
2015-Mar-25 12:32N 44°19' E 008°30'0 0.0
2015-Mar-25 11:32N 44°19' E 008°30'0 0.0
2015-Mar-25 10:32N 44°19' E 008°30'0 0.0
2015-Mar-25 09:32N 44°19' E 008°30'0 0.0
2015-Mar-25 08:32N 44°19' E 008°30'0 0.0
2015-Mar-25 07:32N 44°19' E 008°30'0 0.0
2015-Mar-25 06:32N 44°19' E 008°30'0 0.0
2015-Mar-25 05:32N 44°19' E 008°30'0 0.0
2015-Mar-25 04:32N 44°19' E 008°30'0 0.0
2015-Mar-25 03:32N 44°19' E 008°30'0 0.0
2015-Mar-25 02:32N 44°19' E 008°30'0 0.0
2015-Mar-25 01:32N 44°19' E 008°30'0 0.0
2015-Mar-25 00:32N 44°19' E 008°30'0 0.0
2015-Mar-24 23:32N 44°19' E 008°30'0 0.0
2015-Mar-24 22:32N 44°19' E 008°30'0 0.0
2015-Mar-24 21:32N 44°19' E 008°30'0 0.0
2015-Mar-24 20:32N 44°19' E 008°30'0 0.0
2015-Mar-24 19:32N 44°19' E 008°30'0 0.0
2015-Mar-24 18:32N 44°19' E 008°30'0 0.0
2015-Mar-24 17:32N 44°19' E 008°30'0 0.0
2015-Mar-24 16:32N 44°19' E 008°30'0 0.0
2015-Mar-24 15:32N 44°19' E 008°30'0 0.0
2015-Mar-24 14:32N 44°19' E 008°30'0 0.0
2015-Mar-24 13:32N 44°19' E 008°30'0 0.0
2015-Mar-24 12:32N 44°19' E 008°30'0 0.0
2015-Mar-24 11:32N 44°19' E 008°30'0 0.0
2015-Mar-24 10:32N 44°19' E 008°30'0 0.0
2015-Mar-24 09:32N 44°19' E 008°30'0 0.0
2015-Mar-24 08:26N 44°19' E 008°30'0 0.0
2015-Mar-24 07:26N 44°19' E 008°30'0 0.0
2015-Mar-24 06:26N 44°19' E 008°30'0 0.0
2015-Mar-24 05:20N 44°19' E 008°30'0 0.0
2015-Mar-24 04:32N 44°19' E 008°30'0 0.0
2015-Mar-24 03:32N 44°19' E 008°30'0 0.0
2015-Mar-24 02:32N 44°19' E 008°30'0 0.0
2015-Mar-24 01:32N 44°19' E 008°30'0 0.0
2015-Mar-24 00:32N 44°19' E 008°30'0 0.0
2015-Mar-23 23:32N 44°19' E 008°30'0 0.0
2015-Mar-23 22:08N 44°19' E 008°30'0 0.0
2015-Mar-23 21:08N 44°19' E 008°30'0 0.0
2015-Mar-23 20:26N 44°19' E 008°30'0 0.0
2015-Mar-23 19:32N 44°19' E 008°30'0 0.0
2015-Mar-23 18:08N 44°19' E 008°30'0 0.0
2015-Mar-23 17:26N 44°19' E 008°30'0 0.0
2015-Mar-23 15:26N 44°19' E 008°30'0 0.0
2015-Mar-23 11:29N 44°19' E 008°30'0 0.0
2015-Mar-23 10:08N 44°19' E 008°30'0 0.0
2015-Mar-23 09:20N 44°19' E 008°30'0 0.0
2015-Mar-23 08:32N 44°19' E 008°30'0 0.0
2015-Mar-23 07:32N 44°19' E 008°30'0 0.0
2015-Mar-23 06:20N 44°19' E 008°30'0 0.0
2015-Mar-23 05:08N 44°19' E 008°30'0 0.0
2015-Mar-23 04:29N 44°19' E 008°30'0 0.0
2015-Mar-23 03:14N 44°19' E 008°30'0 0.0
2015-Mar-23 02:32N 44°19' E 008°30'0 0.0
2015-Mar-23 01:14N 44°19' E 008°30'0 0.0
2015-Mar-23 00:14N 44°19' E 008°30'0 0.0
2015-Mar-22 23:26N 44°19' E 008°30'0 0.0
2015-Mar-22 22:20N 44°19' E 008°30'0 0.0
2015-Mar-22 20:20N 44°19' E 008°30'0 0.0
2015-Mar-22 19:14N 44°19' E 008°30'0 0.0
2015-Mar-22 18:26N 44°19' E 008°30'0 0.0
2015-Mar-22 17:32N 44°19' E 008°30'0 0.0
2015-Mar-22 16:20N 44°19' E 008°30'0 0.0
2015-Mar-22 15:32N 44°19' E 008°30'0 0.0
2015-Mar-22 14:32N 44°19' E 008°30'0 0.0
2015-Mar-22 13:32N 44°19' E 008°30'0 0.0
2015-Mar-22 12:20N 44°19' E 008°30'0 0.0
2015-Mar-22 11:26N 44°19' E 008°30'0 0.0
2015-Mar-22 10:32N 44°19' E 008°30'0 0.0
2015-Mar-22 09:32N 44°19' E 008°30'0 0.0
2015-Mar-22 08:26N 44°19' E 008°30'0 0.0
2015-Mar-22 07:26N 44°19' E 008°30'0 0.0
2015-Mar-22 06:26N 44°19' E 008°30'0 0.0
2015-Mar-22 05:26N 44°19' E 008°30'0 0.0
2015-Mar-22 04:32N 44°19' E 008°30'0 0.0
2015-Mar-22 03:32N 44°19' E 008°30'0 0.0
2015-Mar-22 02:32N 44°19' E 008°30'0 0.0
2015-Mar-22 01:32N 44°19' E 008°30'0 0.0
2015-Mar-22 00:26N 44°19' E 008°30'0 0.0
2015-Mar-21 23:26N 44°19' E 008°30'0 0.0
2015-Mar-21 22:32N 44°19' E 008°30'0 0.0
2015-Mar-21 21:32N 44°19' E 008°30'0 0.0
2015-Mar-21 19:29N 44°19' E 008°30'0 0.0
2015-Mar-21 18:20N 44°19' E 008°30'0 0.0
2015-Mar-21 17:32N 44°19' E 008°30'0 0.0
2015-Mar-21 16:26N 44°19' E 008°30'0 0.0
2015-Mar-21 15:26N 44°19' E 008°30'0 0.0
2015-Mar-21 14:14N 44°19' E 008°30'0 0.0
2015-Mar-21 13:14N 44°19' E 008°30'0 0.0
2015-Mar-21 12:32N 44°19' E 008°30'0 0.0
2015-Mar-21 11:05N 44°19' E 008°30'0 0.0
2015-Mar-21 10:17N 44°19' E 008°30'0 0.0
2015-Mar-21 08:08N 44°19' E 008°30'0 0.0
2015-Mar-21 07:20N 44°19' E 008°30'0 0.0
2015-Mar-21 06:32N 44°19' E 008°30'0 0.0
2015-Mar-21 04:11N 44°19' E 008°30'0 0.0
2015-Mar-21 02:26N 44°19' E 008°30'0 0.0
2015-Mar-21 01:32N 44°19' E 008°30'0 0.0
2015-Mar-21 00:32N 44°19' E 008°30'0 0.0
2015-Mar-20 23:32N 44°19' E 008°30'0 0.0
2015-Mar-20 22:32N 44°19' E 008°30'0 0.0
2015-Mar-20 21:32N 44°19' E 008°30'0 0.0
2015-Mar-20 20:26N 44°19' E 008°30'0 0.0
2015-Mar-20 19:32N 44°19' E 008°30'0 0.0
2015-Mar-20 18:32N 44°19' E 008°30'0 0.0
2015-Mar-20 17:32N 44°19' E 008°30'0 0.0
2015-Mar-20 16:32N 44°19' E 008°30'0 0.0
2015-Mar-20 15:32N 44°19' E 008°30'0 0.0
2015-Mar-20 14:32N 44°19' E 008°30'0 0.0
2015-Mar-20 13:32N 44°19' E 008°30'0 0.0
2015-Mar-20 12:32N 44°19' E 008°30'0 0.0
2015-Mar-20 11:32N 44°19' E 008°30'0 0.0
2015-Mar-20 10:32N 44°19' E 008°30'0 0.0
2015-Mar-20 09:32N 44°19' E 008°30'0 0.0
2015-Mar-20 08:32N 44°19' E 008°30'0 0.0
2015-Mar-20 07:32N 44°19' E 008°30'0 0.0
2015-Mar-20 06:32N 44°19' E 008°30'  
Track history (hours):
 
Tides and Currents Weather Stations Pressure Air Temp Water Temp Dewpoint Dewpoint Depression Visibility Wind Speed Wind Dir Waves Ship Positions

Lowlands Queen

Last reported at 2015-Mar-30 06:31 UTC. Time now 2015-Mar-30 07:03 UTC.
Position N 27°56' W 013°41'.

Length 225 m; draft 8.6 m.

Type: Cargo ship. MMSI: 370913000.

Date/timePositionNaut miles runAvg speedWind from/ knotsBaromVisibWave heightAir tempDewpointWater temp
2015-Mar-30 06:31N 27°56' W 013°41'1414.3
2015-Mar-30 05:32N 28°07' W 013°30'2014.1
2015-Mar-30 04:09N 28°21' W 013°16'1213.8
2015-Mar-30 03:17N 28°30' W 013°07'1013.9
2015-Mar-30 02:33N 28°38' W 012°59'1414.0
2015-Mar-30 01:33N 28°48' W 012°48'1413.9
2015-Mar-30 00:33N 28°59' W 012°38'1413.8
2015-Mar-29 23:33N 29°10' W 012°28'1413.8
2015-Mar-29 22:33N 29°21' W 012°20'29313.9
2015-Mar-29 01:26N 33°28' W 009°13'1214.3
2015-Mar-29 00:34N 33°37' W 009°03'1514.7
2015-Mar-28 23:33N 33°47' W 008°51'20713.4
2015-Mar-28 08:08N 35°58' W 005°34'711.8
2015-Mar-28 07:33N 36°00' W 005°26'1010.1
2015-Mar-28 06:34N 36°03' W 005°15'19813.2
2015-Mar-27 15:30N 37°03' W 001°19'1313.6
2015-Mar-27 14:33N 37°11' W 001°07'1313.0
2015-Mar-27 13:34N 37°20' W 000°55'1413.9
2015-Mar-27 12:33N 37°29' W 000°42'1414.4
2015-Mar-27 11:34N 37°39' W 000°30'1414.5
2015-Mar-27 10:34N 37°52' W 000°20'1514.4
2015-Mar-27 09:33N 38°04' W 000°10'10214.3
2015-Mar-27 02:25N 39°24' E 001°12'1213.7
2015-Mar-27 01:33N 39°33' E 001°22'1414.1
2015-Mar-27 00:34N 39°43' E 001°34'1413.7
2015-Mar-26 23:33N 39°53' E 001°46'1413.6
2015-Mar-26 22:33N 40°03' E 001°58'1313.5
2015-Mar-26 21:33N 40°13' E 002°10'1313.3
2015-Mar-26 20:33N 40°23' E 002°22'1313.1
2015-Mar-26 19:33N 40°32' E 002°35'1413.8
2015-Mar-26 18:33N 40°39' E 002°50'1313.4
2015-Mar-26 17:33N 40°46' E 003°05'1313.3
2015-Mar-26 16:33N 40°53' E 003°21'1513.2
2015-Mar-26 15:27N 41°01' E 003°37'1213.3
2015-Mar-26 14:32N 41°07' E 003°51'1513.8
2015-Mar-26 13:28N 41°14' E 004°08'1413.5
2015-Mar-26 12:27N 41°22' E 004°23'1312.7
2015-Mar-26 11:26N 41°28' E 004°38'1212.2
2015-Mar-26 10:26N 41°35' E 004°52'1211.7
2015-Mar-26 09:24N 41°41' E 005°06'9911.2
2015-Mar-26 00:33N 42°32' E 007°01'1313.0
2015-Mar-25 23:32N 42°38' E 007°16'7913.1
2015-Mar-25 17:30N 43°40' E 008°24'1414.8
2015-Mar-25 16:34N 43°53' E 008°31'1514.6
2015-Mar-25 15:33N 44°08' E 008°34'1211.5
2015-Mar-25 14:33N 44°19' E 008°30'0 0.1
2015-Mar-25 13:32N 44°19' E 008°30'0 0.0
2015-Mar-25 12:32N 44°19' E 008°30'0 0.0
2015-Mar-25 11:32N 44°19' E 008°30'0 0.0
2015-Mar-25 10:32N 44°19' E 008°30'0 0.0
2015-Mar-25 09:32N 44°19' E 008°30'0 0.0
2015-Mar-25 08:32N 44°19' E 008°30'0 0.0
2015-Mar-25 07:32N 44°19' E 008°30'0 0.0
2015-Mar-25 06:32N 44°19' E 008°30'0 0.0
2015-Mar-25 05:32N 44°19' E 008°30'0 0.0
2015-Mar-25 04:32N 44°19' E 008°30'0 0.0
2015-Mar-25 03:32N 44°19' E 008°30'0 0.0
2015-Mar-25 02:32N 44°19' E 008°30'0 0.0
2015-Mar-25 01:32N 44°19' E 008°30'0 0.0
2015-Mar-25 00:32N 44°19' E 008°30'0 0.0
2015-Mar-24 23:32N 44°19' E 008°30'0 0.0
2015-Mar-24 22:32N 44°19' E 008°30'0 0.0
2015-Mar-24 21:32N 44°19' E 008°30'0 0.0
2015-Mar-24 20:32N 44°19' E 008°30'0 0.0
2015-Mar-24 19:32N 44°19' E 008°30'0 0.0
2015-Mar-24 18:32N 44°19' E 008°30'0 0.0
2015-Mar-24 17:32N 44°19' E 008°30'0 0.0
2015-Mar-24 16:32N 44°19' E 008°30'0 0.0
2015-Mar-24 15:32N 44°19' E 008°30'0 0.0
2015-Mar-24 14:32N 44°19' E 008°30'0 0.0
2015-Mar-24 13:32N 44°19' E 008°30'0 0.0
2015-Mar-24 12:32N 44°19' E 008°30'0 0.0
2015-Mar-24 11:32N 44°19' E 008°30'0 0.0
2015-Mar-24 10:32N 44°19' E 008°30'0 0.0
2015-Mar-24 09:32N 44°19' E 008°30'0 0.0
2015-Mar-24 08:26N 44°19' E 008°30'0 0.0
2015-Mar-24 07:26N 44°19' E 008°30'0 0.0
2015-Mar-24 06:26N 44°19' E 008°30'0 0.0
2015-Mar-24 05:20N 44°19' E 008°30'0 0.0
2015-Mar-24 04:32N 44°19' E 008°30'0 0.0
2015-Mar-24 03:32N 44°19' E 008°30'0 0.0
2015-Mar-24 02:32N 44°19' E 008°30'0 0.0
2015-Mar-24 01:32N 44°19' E 008°30'0 0.0
2015-Mar-24 00:32N 44°19' E 008°30'0 0.0
2015-Mar-23 23:32N 44°19' E 008°30'0 0.0
2015-Mar-23 22:08N 44°19' E 008°30'0 0.0
2015-Mar-23 21:08N 44°19' E 008°30'0 0.0
2015-Mar-23 20:26N 44°19' E 008°30'0 0.0
2015-Mar-23 19:32N 44°19' E 008°30'0 0.0
2015-Mar-23 18:08N 44°19' E 008°30'0 0.0
2015-Mar-23 17:26N 44°19' E 008°30'0 0.0
2015-Mar-23 15:26N 44°19' E 008°30'0 0.0
2015-Mar-23 11:29N 44°19' E 008°30'0 0.0
2015-Mar-23 10:08N 44°19' E 008°30'0 0.0
2015-Mar-23 09:20N 44°19' E 008°30'0 0.0
2015-Mar-23 08:32N 44°19' E 008°30'0 0.0
2015-Mar-23 07:32N 44°19' E 008°30'0 0.0
2015-Mar-23 06:20N 44°19' E 008°30'0 0.0
2015-Mar-23 05:08N 44°19' E 008°30'0 0.0
2015-Mar-23 04:29N 44°19' E 008°30'0 0.0
2015-Mar-23 03:14N 44°19' E 008°30'0 0.0
2015-Mar-23 02:32N 44°19' E 008°30'0 0.0
2015-Mar-23 01:14N 44°19' E 008°30'0 0.0
2015-Mar-23 00:14N 44°19' E 008°30'0 0.0
2015-Mar-22 23:26N 44°19' E 008°30'0 0.0
2015-Mar-22 22:20N 44°19' E 008°30'0 0.0
2015-Mar-22 20:20N 44°19' E 008°30'0 0.0
2015-Mar-22 19:14N 44°19' E 008°30'0 0.0
2015-Mar-22 18:26N 44°19' E 008°30'0 0.0
2015-Mar-22 17:32N 44°19' E 008°30'0 0.0
2015-Mar-22 16:20N 44°19' E 008°30'0 0.0
2015-Mar-22 15:32N 44°19' E 008°30'0 0.0
2015-Mar-22 14:32N 44°19' E 008°30'0 0.0
2015-Mar-22 13:32N 44°19' E 008°30'0 0.0
2015-Mar-22 12:20N 44°19' E 008°30'0 0.0
2015-Mar-22 11:26N 44°19' E 008°30'0 0.0
2015-Mar-22 10:32N 44°19' E 008°30'0 0.0
2015-Mar-22 09:32N 44°19' E 008°30'0 0.0
2015-Mar-22 08:26N 44°19' E 008°30'0 0.0
2015-Mar-22 07:26N 44°19' E 008°30'0 0.0
2015-Mar-22 06:26N 44°19' E 008°30'0 0.0
2015-Mar-22 05:26N 44°19' E 008°30'0 0.0
2015-Mar-22 04:32N 44°19' E 008°30'0 0.0
2015-Mar-22 03:32N 44°19' E 008°30'0 0.0
2015-Mar-22 02:32N 44°19' E 008°30'0 0.0
2015-Mar-22 01:32N 44°19' E 008°30'0 0.0
2015-Mar-22 00:26N 44°19' E 008°30'0 0.0
2015-Mar-21 23:26N 44°19' E 008°30'0 0.0
2015-Mar-21 22:32N 44°19' E 008°30'0 0.0
2015-Mar-21 21:32N 44°19' E 008°30'0 0.0
2015-Mar-21 19:29N 44°19' E 008°30'0 0.0
2015-Mar-21 18:20N 44°19' E 008°30'0 0.0
2015-Mar-21 17:32N 44°19' E 008°30'0 0.0
2015-Mar-21 16:26N 44°19' E 008°30'0 0.0
2015-Mar-21 15:26N 44°19' E 008°30'0 0.0
2015-Mar-21 14:14N 44°19' E 008°30'0 0.0
2015-Mar-21 13:14N 44°19' E 008°30'0 0.0
2015-Mar-21 12:32N 44°19' E 008°30'0 0.0
2015-Mar-21 11:05N 44°19' E 008°30'0 0.0
2015-Mar-21 10:17N 44°19' E 008°30'0 0.0
2015-Mar-21 08:08N 44°19' E 008°30'0 0.0
2015-Mar-21 07:20N 44°19' E 008°30'0 0.0
2015-Mar-21 06:32N 44°19' E 008°30'0 0.0
2015-Mar-21 04:11N 44°19' E 008°30'0 0.0
2015-Mar-21 02:26N 44°19' E 008°30'0 0.0
2015-Mar-21 01:32N 44°19' E 008°30'0 0.0
2015-Mar-21 00:32N 44°19' E 008°30'0 0.0
2015-Mar-20 23:32N 44°19' E 008°30'0 0.0
2015-Mar-20 22:32N 44°19' E 008°30'0 0.0
2015-Mar-20 21:32N 44°19' E 008°30'0 0.0
2015-Mar-20 20:26N 44°19' E 008°30'0 0.0
2015-Mar-20 19:32N 44°19' E 008°30'0 0.0
2015-Mar-20 18:32N 44°19' E 008°30'0 0.0
2015-Mar-20 17:32N 44°19' E 008°30'0 0.0
2015-Mar-20 16:32N 44°19' E 008°30'0 0.0
2015-Mar-20 15:32N 44°19' E 008°30'0 0.0
2015-Mar-20 14:32N 44°19' E 008°30'0 0.0
2015-Mar-20 13:32N 44°19' E 008°30'0 0.0
2015-Mar-20 12:32N 44°19' E 008°30'0 0.0
2015-Mar-20 11:32N 44°19' E 008°30'0 0.0
2015-Mar-20 10:32N 44°19' E 008°30'0 0.0
2015-Mar-20 09:32N 44°19' E 008°30'0 0.0
2015-Mar-20 08:32N 44°19' E 008°30'0 0.0
2015-Mar-20 07:32N 44°19' E 008°30'0 0.0
2015-Mar-20 06:32N 44°19' E 008°30'  

Dump ship's entire track history